Terminal Aerodrome Forecast
Issued by NWS Knoxville/Tri Cities, TN

Home | Current Version | Previous Version | Text Only | Print | Product List | Glossary On
Versions: 1 2 3 4 5 6 7 8 9 10 11 12 13 14 15 16 17 18 19 20 21 22 23 24 25 26 27 28 29 30 31 32 33 34 35 36 37 38 39 40 41 42 43 44 45 46 47 48 49
000
FTUS44 KMRX 230520
TAFTRI
TAF
KTRI 230520Z 2306/2406 32004KT 5SM BR VCSH SCT030 BKN080
     FM230900 00000KT 2SM BR SCT002 BKN150
      TEMPO 2309/2311 1/2SM FG BKN002
     FM231300 00000KT 5SM HZ SCT004 BKN030
     FM231400 27005KT P6SM SCT035 BKN150
     FM231900 30006KT P6SM VCTS BKN045CB
     FM240100 00000KT P6SM FEW050 BKN200=

USA.gov is the U.S. government's official web portal to all federal, state and local government web resources and services.